Time;durP1;ratioP1;P1;durP2;ratioP2;P2;SDS_P1;SDS_P2;PMS_P1;PMS_P2;Temp;Humidity;BMP_temperature;BMP_pressure;BME280_temperature;BME280_humidity;BME280_pressure;Samples;Min_cycle;Max_cycle;Signal;HPM_P1;HPM_P2
2023/08/10 00:00:44;;;;;;;;;;;;;;;21.45;56.56;101428.53;5054752;28;4375;-68
2023/08/10 00:03:10;;;;;;;;;;;;;;;21.46;57.00;101435.03;5055055;28;4093;-68
2023/08/10 00:05:37;;;;;;;;;;;;;;;21.45;56.57;101434.28;5056073;28;4001;-69
2023/08/10 00:08:03;;;;;;;;;;;;;;;21.46;56.49;101438.69;5058350;28;4247;-68
2023/08/10 00:10:30;;;;;;;;;;;;;;;21.46;56.64;101437.91;5059060;28;3975;-69
2023/08/10 00:12:56;;;;;;;;;;;;;;;21.46;56.86;101443.69;5059850;28;4121;-68
2023/08/10 00:15:22;;;;;;;;;;;;;;;21.44;56.61;101441.47;5060130;28;4019;-68
2023/08/10 00:17:49;;;;;;;;;;;;;;;21.45;56.45;101436.44;5058124;28;4199;-69
2023/08/10 00:20:17;;;;;;;;;;;;;;;21.45;56.48;101436.44;5060510;28;4014;-68
2023/08/10 00:22:43;;;;;;;;;;;;;;;21.45;56.60;101436.44;5057600;28;4208;-68
2023/08/10 00:25:10;;;;;;;;;;;;;;;21.43;56.62;101442.09;5060910;28;3987;-68
2023/08/10 00:27:38;;;;;;;;;;;;;;;21.44;56.47;101452.22;5059117;28;3986;-68
2023/08/10 00:30:06;;;;;;;;;;;;;;;21.43;56.70;101439.22;5058646;28;4459;-68
2023/08/10 00:32:32;;;;;;;;;;;;;;;21.43;56.70;101444.97;5039535;28;3974;-68
2023/08/10 00:34:58;;;;;;;;;;;;;;;21.43;56.59;101447.84;5057251;28;4158;-68
2023/08/10 00:37:25;;;;;;;;;;;;;;;21.41;56.61;101439.84;5042248;28;4190;-68
2023/08/10 00:39:51;;;;;;;;;;;;;;;21.42;56.63;101438.47;5059974;28;4474;-68
2023/08/10 00:42:18;;;;;;;;;;;;;;;21.43;56.57;101439.22;5042341;28;4063;-68
2023/08/10 00:44:44;;;;;;;;;;;;;;;21.42;56.75;101438.47;5056595;28;4157;-69
2023/08/10 00:47:11;;;;;;;;;;;;;;;21.42;56.77;101437.75;5057825;28;3958;-68
2023/08/10 00:49:37;;;;;;;;;;;;;;;21.41;56.62;101448.50;5032555;28;4239;-68
2023/08/10 00:52:04;;;;;;;;;;;;;;;21.40;56.74;101446.25;5028385;28;4020;-68
2023/08/10 00:54:31;;;;;;;;;;;;;;;21.41;56.69;101442.00;5059176;28;4144;-68
2023/08/10 00:56:57;;;;;;;;;;;;;;;21.42;56.62;101449.25;5057561;28;4091;-68
2023/08/10 00:59:24;;;;;;;;;;;;;;;21.40;56.65;101447.00;5059359;28;4109;-68
2023/08/10 01:01:51;;;;;;;;;;;;;;;21.41;56.66;101453.50;5057217;28;4178;-70
2023/08/10 01:04:18;;;;;;;;;;;;;;;21.40;56.63;101452.00;5015363;28;4138;-68
2023/08/10 01:06:59;;;;;;;;;;;;;;;21.41;56.61;101460.03;5031247;28;4130;-68
2023/08/10 01:09:28;;;;;;;;;;;;;;;21.41;56.81;101459.28;5058730;28;4121;-68
2023/08/10 01:11:58;;;;;;;;;;;;;;;21.39;56.50;101453.38;5013725;28;4007;-68
2023/08/10 01:14:44;;;;;;;;;;;;;;;21.40;56.50;101463.53;5031760;28;4585;-68
2023/08/10 01:17:16;;;;;;;;;;;;;;;21.39;56.72;101453.38;5057822;28;5100;-68
2023/08/10 01:19:42;;;;;;;;;;;;;;;21.40;56.59;101457.78;5015384;28;4194;-68
2023/08/10 01:22:16;;;;;;;;;;;;;;;21.38;56.51;101461.28;5017465;28;4195;-69
2023/08/10 01:24:43;;;;;;;;;;;;;;;21.39;56.70;101462.75;5032060;28;4116;-68
2023/08/10 01:27:12;;;;;;;;;;;;;;;21.39;56.62;101456.25;5057224;28;4222;-68
2023/08/10 01:29:39;;;;;;;;;;;;;;;21.37;56.80;101456.16;5036376;28;4200;-69
2023/08/10 01:32:11;;;;;;;;;;;;;;;21.39;56.63;101457.00;5055192;28;4162;-68
2023/08/10 01:34:38;;;;;;;;;;;;;;;21.38;56.53;101457.66;5058240;28;4350;-69
2023/08/10 01:37:04;;;;;;;;;;;;;;;21.38;56.70;101457.66;5030687;28;4173;-68
2023/08/10 01:39:32;;;;;;;;;;;;;;;21.38;56.74;101454.78;5032908;28;4224;-69
2023/08/10 01:41:58;;;;;;;;;;;;;;;21.37;56.83;101448.25;5034028;28;4057;-68
2023/08/10 01:44:25;;;;;;;;;;;;;;;21.39;56.73;101456.25;5057153;28;4008;-68
2023/08/10 01:46:51;;;;;;;;;;;;;;;21.38;56.50;101463.41;5038267;28;4180;-81
2023/08/10 01:49:17;;;;;;;;;;;;;;;21.38;56.73;101460.53;5031544;28;4102;-63
2023/08/10 01:51:44;;;;;;;;;;;;;;;21.37;56.74;101459.03;5019629;28;4071;-82
2023/08/10 01:54:11;;;;;;;;;;;;;;;21.36;56.62;101464.06;5032607;28;4167;-82
2023/08/10 01:56:37;;;;;;;;;;;;;;;21.37;56.51;101470.56;5033927;28;4017;-82
2023/08/10 01:59:03;;;;;;;;;;;;;;;21.37;56.96;101464.78;5056869;28;4037;-80
2023/08/10 02:01:30;;;;;;;;;;;;;;;21.36;56.61;101475.56;5058741;28;4225;-80
2023/08/10 02:03:57;;;;;;;;;;;;;;;21.34;56.94;101466.81;5056488;28;4285;-81
2023/08/10 02:06:23;;;;;;;;;;;;;;;21.34;56.54;101472.59;5051044;28;4197;-83
2023/08/10 02:08:50;;;;;;;;;;;;;;;21.36;56.81;101463.31;5058827;28;4052;-82
2023/08/10 02:11:16;;;;;;;;;;;;;;;21.36;56.77;101457.56;5060421;28;4047;-81
2023/08/10 02:13:43;;;;;;;;;;;;;;;21.34;56.60;101456.03;5058530;28;4111;-83
2023/08/10 02:16:10;;;;;;;;;;;;;;;21.33;56.45;101460.31;5041791;28;4114;-83
2023/08/10 02:18:39;;;;;;;;;;;;;;;21.33;56.82;101463.22;5057485;28;4085;-81
2023/08/10 02:24:41;;;;;;;;;;;;;;;21.32;56.63;101455.19;5008437;28;4172;-81
2023/08/10 02:27:08;;;;;;;;;;;;;;;21.32;56.93;101467.47;5045983;28;3942;-82
2023/08/10 02:29:35;;;;;;;;;;;;;;;21.32;56.78;101458.06;5060903;28;4153;-82
2023/08/10 02:32:01;;;;;;;;;;;;;;;21.32;56.62;101470.34;5057286;28;3943;-83
2023/08/10 02:34:28;;;;;;;;;;;;;;;21.31;56.66;101468.84;5058284;28;3996;-82
2023/08/10 02:36:54;;;;;;;;;;;;;;;21.31;56.50;101471.00;5059630;28;4045;-82
2023/08/10 02:39:21;;;;;;;;;;;;;;;21.31;56.59;101474.63;5043171;28;3961;-80
2023/08/10 02:41:47;;;;;;;;;;;;;;;21.31;56.84;101479.66;5060874;28;4162;-84
2023/08/10 02:44:13;;;;;;;;;;;;;;;21.30;56.63;101481.78;5060075;28;4119;-80
2023/08/10 02:46:40;;;;;;;;;;;;;;;21.29;56.71;101471.63;5044144;28;4654;-80
2023/08/10 02:49:07;;;;;;;;;;;;;;;21.29;56.77;101471.63;5049425;28;5525;-81
2023/08/10 02:51:33;;;;;;;;;;;;;;;21.29;56.61;101471.63;5058786;28;4123;-82
2023/08/10 02:54:00;;;;;;;;;;;;;;;21.29;56.60;101471.63;5042298;28;4163;-81
2023/08/10 02:56:26;;;;;;;;;;;;;;;21.28;56.69;101473.03;5043073;28;4111;-81
2023/08/10 02:58:53;;;;;;;;;;;;;;;21.29;56.66;101476.66;5060640;28;4140;-80
2023/08/10 03:01:19;;;;;;;;;;;;;;;21.28;56.58;101473.03;5057653;28;4013;-80
2023/08/10 03:03:46;;;;;;;;;;;;;;;21.28;56.66;101475.91;5032594;28;4182;-80
2023/08/10 03:06:12;;;;;;;;;;;;;;;21.28;56.70;101487.44;5061352;28;4010;-82
2023/08/10 03:08:39;;;;;;;;;;;;;;;21.29;56.80;101477.41;5043725;28;4522;-80
2023/08/10 03:11:05;;;;;;;;;;;;;;;21.28;56.62;101480.91;5057771;28;4200;-82
2023/08/10 03:13:32;;;;;;;;;;;;;;;21.28;56.82;101481.66;5058463;28;4138;-82
2023/08/10 03:15:58;;;;;;;;;;;;;;;21.28;56.66;101481.66;5039436;28;4048;-81
2023/08/10 03:18:25;;;;;;;;;;;;;;;21.28;56.57;101475.91;5042251;28;3923;-80
2023/08/10 03:20:51;;;;;;;;;;;;;;;21.25;56.83;101477.16;5059218;28;4312;-81
2023/08/10 03:23:18;;;;;;;;;;;;;;;21.26;56.61;101478.69;5040070;28;4334;-82
2023/08/10 03:25:44;;;;;;;;;;;;;;;21.26;56.74;101478.69;5027335;28;4031;-81
2023/08/10 03:28:11;;;;;;;;;;;;;;;21.26;56.52;101478.69;5041459;28;4224;-82
2023/08/10 03:30:40;;;;;;;;;;;;;;;21.26;56.56;101478.69;5058759;28;4147;-82
2023/08/10 03:33:06;;;;;;;;;;;;;;;21.25;56.52;101482.94;5060254;28;4157;-81
2023/08/10 03:35:33;;;;;;;;;;;;;;;21.26;56.57;101493.09;5052795;28;4043;-82
2023/08/10 03:38:00;;;;;;;;;;;;;;;21.25;56.49;101491.56;5048425;28;4172;-81
2023/08/10 03:40:27;;;;;;;;;;;;;;;21.23;56.90;101497.22;5058374;28;3896;-83
2023/08/10 03:42:53;;;;;;;;;;;;;;;21.20;56.82;101507.16;5046997;28;4218;-81
2023/08/10 03:45:20;;;;;;;;;;;;;;;21.20;56.67;101507.16;5038276;28;4234;-81
2023/08/10 03:47:46;;;;;;;;;;;;;;;21.24;56.42;101506.63;5063793;28;4174;-80
2023/08/10 03:50:13;;;;;;;;;;;;;;;21.24;56.52;101518.91;5054203;28;4237;-80
2023/08/10 03:52:40;;;;;;;;;;;;;;;21.25;56.54;101505.97;5064806;28;4133;-82
2023/08/10 03:55:07;;;;;;;;;;;;;;;21.24;56.51;101516.03;5039312;28;5197;-82
2023/08/10 03:57:34;;;;;;;;;;;;;;;21.24;56.50;101515.28;5063014;28;4015;-82
2023/08/10 04:00:00;;;;;;;;;;;;;;;21.24;56.69;101521.78;5053388;28;4159;-82
2023/08/10 04:02:28;;;;;;;;;;;;;;;21.24;56.64;101521.03;5063496;28;4192;-82
2023/08/10 04:04:55;;;;;;;;;;;;;;;21.24;56.78;101516.03;5061418;28;4012;-81
2023/08/10 04:07:24;;;;;;;;;;;;;;;21.24;56.51;101521.78;5050865;28;4276;-81
2023/08/10 04:09:50;;;;;;;;;;;;;;;21.24;56.75;101521.78;5062885;28;4020;-81
2023/08/10 04:12:17;;;;;;;;;;;;;;;21.23;56.65;101526.03;5062623;28;3991;-82
2023/08/10 04:14:43;;;;;;;;;;;;;;;21.23;56.48;101526.03;5041662;28;4127;-82
2023/08/10 04:17:10;;;;;;;;;;;;;;;21.23;56.52;101534.66;5062323;28;4056;-82
2023/08/10 04:19:36;;;;;;;;;;;;;;;21.23;56.52;101531.78;5062460;28;4130;-82
2023/08/10 04:22:03;;;;;;;;;;;;;;;21.22;56.65;101533.19;5061292;28;4168;-82
2023/08/10 04:24:29;;;;;;;;;;;;;;;21.21;56.66;101523.06;5059754;28;4051;-82
2023/08/10 04:26:56;;;;;;;;;;;;;;;21.22;56.44;101527.44;5062337;28;4049;-83
2023/08/10 04:29:26;;;;;;;;;;;;;;;21.22;56.52;101533.19;5062905;28;4349;-82
2023/08/10 04:31:52;;;;;;;;;;;;;;;21.22;56.42;101527.44;5059741;28;4473;-80
2023/08/10 04:34:19;;;;;;;;;;;;;;;21.21;56.47;101528.81;5059830;28;4040;-81
2023/08/10 04:36:46;;;;;;;;;;;;;;;21.22;56.45;101523.81;5063734;28;3980;-81
2023/08/10 04:39:13;;;;;;;;;;;;;;;21.20;56.48;101521.56;5063772;28;4040;-80
2023/08/10 04:41:39;;;;;;;;;;;;;;;21.21;56.57;101523.06;5057694;28;3998;-80
2023/08/10 04:44:05;;;;;;;;;;;;;;;21.19;56.68;101531.59;5057156;28;3978;-81
2023/08/10 04:46:32;;;;;;;;;;;;;;;21.20;56.24;101538.84;5062044;28;4150;-83
2023/08/10 04:48:58;;;;;;;;;;;;;;;21.18;55.33;101540.88;5058501;28;4152;-84
2023/08/10 04:51:25;;;;;;;;;;;;;;;21.14;55.17;101532.75;5042302;28;4224;-84
2023/08/10 04:53:51;;;;;;;;;;;;;;;21.11;55.07;101537.66;5060265;28;4144;-85
2023/08/10 04:56:17;;;;;;;;;;;;;;;21.13;54.93;101534.13;5061613;28;4228;-83
2023/08/10 04:58:44;;;;;;;;;;;;;;;21.11;54.81;101537.66;5062199;28;4164;-78
2023/08/10 05:01:13;;;;;;;;;;;;;;;21.14;54.99;101535.63;5059649;28;4050;-80
2023/08/10 05:03:39;;;;;;;;;;;;;;;20.92;54.88;101544.56;5052327;28;4196;-83
2023/08/10 05:06:06;;;;;;;;;;;;;;;19.73;54.98;101542.78;5057565;28;4314;-83
2023/08/10 05:08:32;;;;;;;;;;;;;;;19.16;56.73;101551.50;5060165;28;4130;-83
2023/08/10 05:10:59;;;;;;;;;;;;;;;18.93;57.82;101545.75;5057884;28;4125;-83
2023/08/10 05:13:25;;;;;;;;;;;;;;;18.78;58.76;101547.72;5059571;28;4139;-83
2023/08/10 05:15:52;;;;;;;;;;;;;;;18.64;59.54;101549.63;5059420;28;5407;-80
2023/08/10 05:18:20;;;;;;;;;;;;;;;18.78;59.46;101550.59;5058206;28;4079;-75
2023/08/10 05:20:46;;;;;;;;;;;;;;;18.73;60.07;101563.13;5058620;28;4221;-83
2023/08/10 05:23:12;;;;;;;;;;;;;;;18.66;60.39;101558.38;5060472;28;4020;-81
2023/08/10 05:25:39;;;;;;;;;;;;;;;18.63;60.82;101560.38;5058804;28;4153;-79
2023/08/10 05:28:05;;;;;;;;;;;;;;;18.69;60.94;101565.00;5057759;28;4140;-79
2023/08/10 05:30:32;;;;;;;;;;;;;;;19.00;60.08;101567.72;5054054;28;3983;-73
2023/08/10 05:32:58;;;;;;;;;;;;;;;18.98;60.08;101571.22;5057912;28;4180;-74
2023/08/10 05:35:24;;;;;;;;;;;;;;;18.94;60.16;101573.81;5056321;28;4093;-74
2023/08/10 05:37:51;;;;;;;;;;;;;;;19.08;59.88;101573.22;5052895;28;4129;-76
2023/08/10 05:40:17;;;;;;;;;;;;;;;19.31;59.21;101572.50;5055139;28;4090;-75
2023/08/10 05:42:44;;;;;;;;;;;;;;;19.58;58.43;101572.75;5058496;28;4140;-75
2023/08/10 05:45:15;;;;;;;;;;;;;;;19.80;57.80;101581.25;5059003;28;3998;-76
2023/08/10 05:47:42;;;;;;;;;;;;;;;19.95;57.40;101574.97;5058964;28;4035;-75
2023/08/10 05:50:08;;;;;;;;;;;;;;;20.08;56.92;101580.06;5059793;28;4086;-76
2023/08/10 05:52:35;;;;;;;;;;;;;;;20.12;56.84;101584.56;5059664;28;4144;-75
2023/08/10 05:55:01;;;;;;;;;;;;;;;20.11;56.99;101585.94;5059309;28;4335;-75
2023/08/10 05:57:28;;;;;;;;;;;;;;;20.12;56.83;101582.44;5059030;28;4285;-77
2023/08/10 05:59:54;;;;;;;;;;;;;;;20.14;56.95;101590.44;5058525;28;4137;-76
2023/08/10 06:02:21;;;;;;;;;;;;;;;20.19;56.93;101595.03;5059734;28;4323;-75
2023/08/10 06:04:48;;;;;;;;;;;;;;;20.18;56.82;101590.66;5059012;28;4290;-75
2023/08/10 06:07:15;;;;;;;;;;;;;;;20.18;56.97;101584.91;5059670;28;4141;-76
2023/08/10 06:09:41;;;;;;;;;;;;;;;20.22;56.76;101591.66;5059005;28;4280;-74
2023/08/10 06:12:08;;;;;;;;;;;;;;;20.26;56.77;101586.13;5058541;28;4125;-76
2023/08/10 06:14:34;;;;;;;;;;;;;;;20.30;56.57;101591.38;5058376;28;4160;-76
2023/08/10 06:17:00;;;;;;;;;;;;;;;20.34;56.51;101591.63;5059417;28;4109;-75
2023/08/10 06:19:27;;;;;;;;;;;;;;;20.35;56.71;101590.25;5059837;28;4159;-76
2023/08/10 06:21:53;;;;;;;;;;;;;;;20.37;56.68;101590.34;5056715;28;4141;-76
2023/08/10 06:24:20;;;;;;;;;;;;;;;20.39;56.41;101593.34;5058734;28;4049;-76
2023/08/10 06:26:48;;;;;;;;;;;;;;;20.41;56.37;101592.69;5058317;28;4106;-74
2023/08/10 06:29:15;;;;;;;;;;;;;;;20.42;56.59;101597.84;5059813;28;4099;-73
2023/08/10 06:31:41;;;;;;;;;;;;;;;20.44;56.25;101595.09;5059369;28;4145;-75
2023/08/10 06:34:09;;;;;;;;;;;;;;;20.45;56.44;101593.69;5060349;28;4494;-77
2023/08/10 06:36:35;;;;;;;;;;;;;;;20.45;56.49;101601.56;5057410;28;4049;-76
2023/08/10 06:39:02;;;;;;;;;;;;;;;20.48;56.36;101600.34;5058814;28;3990;-76
2023/08/10 06:41:29;;;;;;;;;;;;;;;20.49;56.20;101602.56;5057934;28;4103;-75
2023/08/10 06:43:55;;;;;;;;;;;;;;;20.50;56.36;101609.06;5056355;28;4167;-75
2023/08/10 06:46:21;;;;;;;;;;;;;;;20.51;56.44;101605.56;5058348;28;3925;-75
2023/08/10 06:48:48;;;;;;;;;;;;;;;20.51;56.40;101605.56;5057758;28;4133;-75
2023/08/10 06:51:15;;;;;;;;;;;;;;;20.53;56.29;101610.69;5027554;28;4220;-76
2023/08/10 06:53:41;;;;;;;;;;;;;;;20.54;56.32;101611.44;5056526;28;4160;-71
2023/08/10 06:56:07;;;;;;;;;;;;;;;20.55;56.50;101615.78;5058465;28;4219;-76
2023/08/10 06:58:36;;;;;;;;;;;;;;;20.55;56.29;101610.03;5059365;28;4089;-75
2023/08/10 07:01:05;;;;;;;;;;;;;;;20.57;56.25;101613.06;5057473;28;4152;-76
2023/08/10 07:03:32;;;;;;;;;;;;;;;20.56;56.32;101612.31;5058257;28;4126;-75
2023/08/10 07:05:58;;;;;;;;;;;;;;;20.57;56.42;101621.69;5057632;28;3996;-74
2023/08/10 07:08:25;;;;;;;;;;;;;;;20.57;56.21;101615.94;5057940;28;4053;-75
2023/08/10 07:10:51;;;;;;;;;;;;;;;20.58;56.32;101608.81;5058228;28;4296;-75
2023/08/10 07:13:17;;;;;;;;;;;;;;;20.58;56.50;101614.56;5058810;28;4003;-75
2023/08/10 07:15:44;;;;;;;;;;;;;;;20.58;56.46;101626.81;5060798;28;4152;-76
2023/08/10 07:18:10;;;;;;;;;;;;;;;20.59;56.30;101634.09;5062305;28;4370;-76
2023/08/10 07:20:38;;;;;;;;;;;;;;;20.60;56.47;101631.97;5061415;28;4070;-76
2023/08/10 07:23:04;;;;;;;;;;;;;;;20.60;56.54;101626.19;5061698;28;4171;-76
2023/08/10 07:25:31;;;;;;;;;;;;;;;20.60;56.56;101623.31;5062696;28;4073;-76
2023/08/10 07:27:57;;;;;;;;;;;;;;;20.61;56.39;101619.06;5062420;28;3985;-75
2023/08/10 07:30:24;;;;;;;;;;;;;;;20.62;56.28;101617.69;5061741;28;4176;-75
2023/08/10 07:32:50;;;;;;;;;;;;;;;20.61;56.39;101619.81;5061335;28;4676;-74
2023/08/10 07:35:18;;;;;;;;;;;;;;;20.63;56.45;101633.56;5061369;28;4009;-75
2023/08/10 07:37:45;;;;;;;;;;;;;;;20.62;56.41;101637.84;5062374;28;4151;-75
2023/08/10 07:40:12;;;;;;;;;;;;;;;20.62;56.51;101641.47;5061808;28;4139;-75
2023/08/10 07:42:38;;;;;;;;;;;;;;;20.63;56.48;101639.31;5062172;28;4100;-76
2023/08/10 07:45:05;;;;;;;;;;;;;;;20.63;56.57;101647.94;5061849;28;4106;-76
2023/08/10 07:47:31;;;;;;;;;;;;;;;20.63;56.50;101645.81;5060891;28;3928;-76
2023/08/10 07:49:58;;;;;;;;;;;;;;;20.64;56.50;101647.34;5061948;28;4289;-69
2023/08/10 07:52:24;;;;;;;;;;;;;;;20.64;56.39;101652.34;5061723;28;3935;-75
2023/08/10 07:54:51;;;;;;;;;;;;;;;20.64;56.46;101649.47;5061567;28;4279;-59
2023/08/10 07:57:17;;;;;;;;;;;;;;;20.64;56.23;101652.34;5062392;28;4235;-59
2023/08/10 07:59:43;;;;;;;;;;;;;;;20.63;56.56;101651.56;5060115;28;4120;-59
2023/08/10 08:02:11;;;;;;;;;;;;;;;20.64;56.38;101658.09;5061851;28;4083;-59
2023/08/10 08:04:37;;;;;;;;;;;;;;;20.64;56.40;101653.09;5062533;28;4243;-59
2023/08/10 08:07:03;;;;;;;;;;;;;;;20.64;56.50;101653.09;5060288;28;3957;-58
2023/08/10 08:09:30;;;;;;;;;;;;;;;20.65;56.39;101653.84;5062151;28;4015;-59
2023/08/10 08:11:56;;;;;;;;;;;;;;;20.65;56.54;101650.94;5060280;28;3959;-59
2023/08/10 08:14:23;;;;;;;;;;;;;;;20.65;56.47;101642.31;5060515;28;4130;-59
2023/08/10 08:16:49;;;;;;;;;;;;;;;20.65;56.25;101648.81;5059690;28;4015;-59
2023/08/10 08:19:17;;;;;;;;;;;;;;;20.65;56.47;101645.94;5061057;28;4303;-59
2023/08/10 08:21:48;;;;;;;;;;;;;;;20.66;56.54;101649.56;5060467;28;4144;-59
2023/08/10 08:24:14;;;;;;;;;;;;;;;20.66;56.57;101649.56;5061445;28;4319;-59
2023/08/10 08:26:41;;;;;;;;;;;;;;;20.65;56.40;101645.19;5060074;28;4150;-60
2023/08/10 08:29:07;;;;;;;;;;;;;;;20.67;56.43;101645.31;5060868;28;4174;-59
2023/08/10 08:31:35;;;;;;;;;;;;;;;20.66;56.46;101647.44;5060927;28;4136;-59
2023/08/10 08:34:03;;;;;;;;;;;;;;;20.67;56.56;101651.06;5060846;28;3996;-59
2023/08/10 08:36:29;;;;;;;;;;;;;;;20.68;56.27;101646.81;5061994;28;4067;-59
2023/08/10 08:38:56;;;;;;;;;;;;;;;20.67;56.32;101651.81;5060561;28;4158;-59
2023/08/10 08:41:22;;;;;;;;;;;;;;;20.67;56.56;101653.94;5062908;28;4110;-59
2023/08/10 08:43:49;;;;;;;;;;;;;;;20.67;56.67;101639.56;5043441;28;3923;-59
2023/08/10 08:46:16;;;;;;;;;;;;;;;20.67;56.48;101636.69;5061541;28;4041;-58
2023/08/10 08:48:43;;;;;;;;;;;;;;;20.67;56.55;101646.06;5059656;28;4153;-59
2023/08/10 08:51:09;;;;;;;;;;;;;;;20.68;56.56;101646.81;5043806;28;4030;-59
2023/08/10 08:53:35;;;;;;;;;;;;;;;20.67;56.58;101636.69;5060671;28;4163;-59
2023/08/10 08:56:02;;;;;;;;;;;;;;;20.67;56.58;101639.56;5033436;28;4089;-59
2023/08/10 08:58:28;;;;;;;;;;;;;;;20.68;56.42;101646.81;5061299;28;3890;-59
2023/08/10 09:00:55;;;;;;;;;;;;;;;20.68;56.61;101647.56;5058891;28;4463;-59
2023/08/10 09:03:26;;;;;;;;;;;;;;;20.68;56.67;101650.44;5060185;28;4011;-58
2023/08/10 09:05:53;;;;;;;;;;;;;;;20.68;56.56;101641.03;5060903;28;4367;-59
2023/08/10 09:08:19;;;;;;;;;;;;;;;20.68;56.69;101641.03;5061439;28;3911;-59
2023/08/10 09:10:46;;;;;;;;;;;;;;;20.70;56.60;101649.81;5060105;28;4100;-59
2023/08/10 09:13:17;;;;;;;;;;;;;;;20.68;56.48;101641.81;5059660;28;4108;-59
2023/08/10 09:15:43;;;;;;;;;;;;;;;20.69;56.48;101642.56;5059037;28;4022;-59
2023/08/10 09:18:09;;;;;;;;;;;;;;;20.68;56.58;101636.06;5060852;28;4083;-59
2023/08/10 09:20:36;;;;;;;;;;;;;;;20.70;56.62;101638.28;5059059;28;5037;-59
2023/08/10 09:23:02;;;;;;;;;;;;;;;20.70;56.34;101632.53;5059945;28;4325;-59
2023/08/10 09:25:36;;;;;;;;;;;;;;;20.69;56.59;101639.69;5061646;28;4090;-59
2023/08/10 09:28:10;;;;;;;;;;;;;;;20.69;56.55;101643.31;5059656;28;4057;-59
2023/08/10 09:30:36;;;;;;;;;;;;;;;20.70;56.36;101638.28;5059784;28;4138;-59
2023/08/10 09:33:02;;;;;;;;;;;;;;;20.70;56.58;101649.81;5060393;28;4176;-59
2023/08/10 09:35:29;;;;;;;;;;;;;;;20.70;56.43;101649.81;5030789;28;3997;-59
2023/08/10 09:38:00;;;;;;;;;;;;;;;20.70;56.53;101644.03;5058353;28;4166;-59
2023/08/10 09:40:27;;;;;;;;;;;;;;;20.71;56.56;101645.56;5059871;28;4264;-59
2023/08/10 09:42:53;;;;;;;;;;;;;;;20.71;56.39;101645.56;5059557;28;4176;-59
2023/08/10 09:45:20;;;;;;;;;;;;;;;20.71;56.57;101654.94;5060604;28;4081;-59
2023/08/10 09:47:46;;;;;;;;;;;;;;;20.71;56.46;101651.31;5059037;28;4008;-59
2023/08/10 09:50:13;;;;;;;;;;;;;;;20.71;56.32;101634.78;5060495;28;4042;-58
2023/08/10 09:52:40;;;;;;;;;;;;;;;20.71;56.52;101639.78;5060133;28;4571;-59
2023/08/10 09:55:06;;;;;;;;;;;;;;;20.72;56.58;101641.28;5059417;28;4080;-59
2023/08/10 09:57:33;;;;;;;;;;;;;;;20.72;56.47;101647.03;5059366;28;4257;-59
2023/08/10 10:00:17;;;;;;;;;;;;;;;20.73;56.40;101642.03;5063064;27;4256;-60
2023/08/10 10:02:44;;;;;;;;;;;;;;;20.72;56.43;101641.28;5041434;28;4064;-60
2023/08/10 10:05:11;;;;;;;;;;;;;;;20.72;56.24;101647.03;5037093;28;4124;-60
2023/08/10 10:07:48;;;;;;;;;;;;;;;20.74;56.39;101655.06;5040568;28;4202;-60
2023/08/10 10:10:15;;;;;;;;;;;;;;;20.74;56.55;101655.06;5041407;28;4063;-60
2023/08/10 10:12:42;;;;;;;;;;;;;;;20.74;56.53;101650.03;5036542;28;4864;-60
2023/08/10 10:15:08;;;;;;;;;;;;;;;20.73;56.57;101659.28;5035160;28;4064;-60
2023/08/10 10:17:35;;;;;;;;;;;;;;;20.73;56.46;101648.56;5021539;28;4138;-60
2023/08/10 10:20:04;;;;;;;;;;;;;;;20.75;56.65;101648.66;5017572;28;4164;-60
2023/08/10 10:22:30;;;;;;;;;;;;;;;20.74;56.62;101655.06;5035521;28;4210;-60
2023/08/10 10:24:57;;;;;;;;;;;;;;;20.73;56.47;101653.53;5014314;28;4380;-60
2023/08/10 10:27:23;;;;;;;;;;;;;;;20.75;56.54;101650.78;5020392;28;4505;-60
2023/08/10 10:29:56;;;;;;;;;;;;;;;20.75;56.44;101645.75;5014961;28;4012;-60
2023/08/10 10:32:22;;;;;;;;;;;;;;;20.74;56.36;101638.53;5017586;28;4071;-60
2023/08/10 10:34:50;;;;;;;;;;;;;;;20.74;56.58;101638.53;5016546;28;4132;-60
2023/08/10 10:37:28;;;;;;;;;;;;;;;20.75;56.53;101636.38;5019544;28;4183;-59
2023/08/10 10:40:12;;;;;;;;;;;;;;;20.75;56.51;101634.25;5020098;28;3987;-60
2023/08/10 10:42:58;;;;;;;;;;;;;;;20.75;56.37;101634.25;5020334;28;3967;-60
2023/08/10 10:45:24;;;;;;;;;;;;;;;20.76;56.42;101632.16;5015509;28;4400;-60
2023/08/10 10:47:51;;;;;;;;;;;;;;;20.76;56.63;101626.38;5018401;28;4013;-60
2023/08/10 10:50:18;;;;;;;;;;;;;;;20.75;56.47;101622.75;5017778;28;4163;-60
2023/08/10 10:52:52;;;;;;;;;;;;;;;20.76;56.53;101617.75;5019495;28;4461;-60
2023/08/10 10:55:19;;;;;;;;;;;;;;;20.76;56.56;101618.50;5020655;28;4506;-60
2023/08/10 10:57:46;;;;;;;;;;;;;;;20.75;56.58;101616.97;5014602;28;3955;-60
2023/08/10 11:00:12;;;;;;;;;;;;;;;20.76;56.52;101612.75;5014550;28;4382;-60
2023/08/10 11:02:39;;;;;;;;;;;;;;;20.76;56.34;101609.13;5013824;28;4111;-60
2023/08/10 11:05:18;;;;;;;;;;;;;;;20.76;56.63;101606.97;5014797;28;3985;-60
2023/08/10 11:07:45;;;;;;;;;;;;;;;20.77;56.62;101607.72;5019159;28;4089;-60
2023/08/10 11:10:12;;;;;;;;;;;;;;;20.77;56.69;101602.72;5010380;28;4213;-60
2023/08/10 11:12:39;;;;;;;;;;;;;;;20.76;56.54;101601.22;5002811;28;3994;-60
2023/08/10 11:15:05;;;;;;;;;;;;;;;20.77;56.54;101596.94;5001346;28;4485;-59
2023/08/10 11:17:32;;;;;;;;;;;;;;;20.77;56.39;101602.72;5004300;28;4141;-59
2023/08/10 11:20:18;;;;;;;;;;;;;;;20.77;56.59;101599.84;5009144;28;4294;-60
2023/08/10 11:22:44;;;;;;;;;;;;;;;20.78;56.54;101607.09;5002192;28;4289;-60
2023/08/10 11:25:12;;;;;;;;;;;;;;;20.78;56.63;101601.34;5003719;28;4011;-60
2023/08/10 11:27:39;;;;;;;;;;;;;;;20.77;56.57;101596.94;5002493;28;3998;-60
2023/08/10 11:30:06;;;;;;;;;;;;;;;20.78;56.59;101604.22;5002107;28;4084;-60
2023/08/10 11:32:32;;;;;;;;;;;;;;;20.79;56.55;101605.72;5010033;28;4483;-60
2023/08/10 11:34:59;;;;;;;;;;;;;;;20.78;56.62;101604.22;5000818;28;4637;-60
2023/08/10 11:37:33;;;;;;;;;;;;;;;20.79;56.39;101610.72;5002237;28;4405;-60
2023/08/10 11:40:12;;;;;;;;;;;;;;;20.79;56.38;101599.94;5000499;28;4157;-60
2023/08/10 11:42:48;;;;;;;;;;;;;;;20.79;56.44;101599.94;5002028;28;4171;-60
2023/08/10 11:45:19;;;;;;;;;;;;;;;20.79;56.62;101602.81;5006039;28;4245;-60
2023/08/10 11:47:52;;;;;;;;;;;;;;;20.80;56.36;101606.44;5007247;28;4027;-60
2023/08/10 11:50:29;;;;;;;;;;;;;;;20.79;56.55;101611.47;5002695;28;4085;-60
2023/08/10 11:52:58;;;;;;;;;;;;;;;20.81;56.53;101602.94;5005746;28;4151;-60
2023/08/10 11:55:26;;;;;;;;;;;;;;;20.80;56.59;101600.69;5008492;28;4205;-60
2023/08/10 11:57:54;;;;;;;;;;;;;;;20.80;56.61;101603.56;5007267;28;4220;-60
2023/08/10 12:00:23;;;;;;;;;;;;;;;20.80;56.37;101595.69;5004301;28;4183;-59
2023/08/10 12:02:59;;;;;;;;;;;;;;;20.80;56.63;101595.69;5008236;28;4060;-60
2023/08/10 12:05:34;;;;;;;;;;;;;;;20.81;56.46;101597.19;5004677;28;4110;-60
2023/08/10 12:08:04;;;;;;;;;;;;;;;20.81;56.26;101597.19;5005930;28;4155;-60
2023/08/10 12:10:35;;;;;;;;;;;;;;;20.81;56.35;101602.94;5004174;28;3998;-61
2023/08/10 12:13:02;;;;;;;;;;;;;;;20.81;56.43;101594.31;5006197;28;4016;-60
2023/08/10 12:15:29;;;;;;;;;;;;;;;20.80;56.63;101589.94;5003775;28;4271;-60
2023/08/10 12:17:55;;;;;;;;;;;;;;;20.81;56.39;101579.91;5002430;28;4296;-60
2023/08/10 12:20:22;;;;;;;;;;;;;;;20.81;56.44;101585.66;5002247;28;4172;-60
2023/08/10 12:22:53;;;;;;;;;;;;;;;20.81;56.33;101582.78;5000863;28;4044;-60
2023/08/10 12:25:20;;;;;;;;;;;;;;;20.81;56.39;101582.78;5001989;28;4019;-60
2023/08/10 12:27:46;;;;;;;;;;;;;;;20.82;56.53;101572.03;5018692;28;4166;-60
2023/08/10 12:30:13;;;;;;;;;;;;;;;20.82;56.31;101574.91;5005884;28;3925;-60
2023/08/10 12:32:39;;;;;;;;;;;;;;;20.82;56.42;101572.78;5000082;28;4054;-60
2023/08/10 12:35:06;;;;;;;;;;;;;;;20.82;56.47;101575.66;4999619;28;5336;-60
2023/08/10 12:37:32;;;;;;;;;;;;;;;20.82;56.68;101574.91;5006865;28;4156;-60
2023/08/10 12:39:59;;;;;;;;;;;;;;;20.82;56.63;101575.66;5004727;28;4175;-60
2023/08/10 12:42:25;;;;;;;;;;;;;;;20.83;56.61;101571.41;4999926;28;3970;-60
2023/08/10 12:44:52;;;;;;;;;;;;;;;20.84;56.46;101572.13;4998386;28;4233;-60
2023/08/10 12:47:18;;;;;;;;;;;;;;;20.82;56.59;101569.91;5003594;28;4278;-60
2023/08/10 12:49:44;;;;;;;;;;;;;;;20.84;56.52;101572.88;5005578;28;4112;-60
2023/08/10 12:52:11;;;;;;;;;;;;;;;20.83;56.64;101570.66;4999978;28;4187;-60